createdAt,value
2023-02-14T00:00:49.478Z,74.13
2023-02-14T00:05:52.366Z,74.41
2023-02-14T00:10:55.044Z,74.59
2023-02-14T00:15:57.794Z,74.24
2023-02-14T00:21:01.068Z,74.15
2023-02-14T00:26:03.952Z,74.17
2023-02-14T00:31:06.770Z,74.35
2023-02-14T00:36:10.763Z,74.17
2023-02-14T00:41:19.555Z,73.93
2023-02-14T00:46:23.296Z,74.39
2023-02-14T00:51:26.231Z,74.11
2023-02-14T00:56:29.039Z,74.15
2023-02-14T01:01:31.761Z,74.58
2023-02-14T01:06:35.099Z,74.17
2023-02-14T01:11:37.677Z,73.80
2023-02-14T01:16:40.477Z,73.89
2023-02-14T01:21:43.272Z,74.03
2023-02-14T01:26:45.949Z,73.94
2023-02-14T01:31:49.605Z,73.58
2023-02-14T01:36:53.213Z,73.99
2023-02-14T01:41:56.983Z,74.71
2023-02-14T01:47:01.508Z,74.06
2023-02-14T01:52:12.940Z,74.32
2023-02-14T01:57:18.316Z,74.38
2023-02-14T02:02:24.190Z,74.31
2023-02-14T02:07:27.840Z,74.36
2023-02-14T02:12:36.021Z,73.96
2023-02-14T02:17:53.727Z,73.79
2023-02-14T02:23:29.120Z,73.80
2023-02-14T02:29:08.803Z,74.12
2023-02-14T02:34:39.052Z,74.03
2023-02-14T02:40:19.895Z,74.04
2023-02-14T02:46:10.041Z,73.47
2023-02-14T02:51:37.140Z,73.61
2023-02-14T02:56:47.476Z,73.10
2023-02-14T03:02:07.463Z,72.65
2023-02-14T03:07:28.727Z,73.02
2023-02-14T03:12:34.419Z,73.02
2023-02-14T03:18:08.582Z,72.80
2023-02-14T03:23:32.332Z,72.14
2023-02-14T03:28:48.286Z,72.13
2023-02-14T03:33:58.629Z,71.80
2023-02-14T03:39:08.805Z,71.90
2023-02-14T03:44:13.787Z,72.21
2023-02-14T03:49:20.689Z,72.00
2023-02-14T03:54:25.077Z,71.49
2023-02-14T03:59:29.258Z,71.72
2023-02-14T04:04:36.235Z,70.95
2023-02-14T04:09:38.923Z,71.39
2023-02-14T04:14:41.699Z,70.90
2023-02-14T04:19:44.370Z,70.35
2023-02-14T04:24:47.191Z,70.02
2023-02-14T04:29:50.566Z,70.17
2023-02-14T04:34:53.850Z,70.19
2023-02-14T04:39:56.533Z,69.97
2023-02-14T04:44:59.347Z,70.11
2023-02-14T04:50:02.118Z,69.61
2023-02-14T04:55:06.063Z,69.51
2023-02-14T05:00:09.484Z,69.77
2023-02-14T05:05:12.282Z,69.32
2023-02-14T05:10:15.324Z,69.51
2023-02-14T05:15:18.074Z,69.62
2023-02-14T05:20:21.032Z,69.27
2023-02-14T05:25:23.743Z,69.53
2023-02-14T05:30:28.393Z,69.05
2023-02-14T05:35:32.389Z,69.08
2023-02-14T05:40:35.200Z,68.87
2023-02-14T05:45:38.116Z,68.86
2023-02-14T05:50:42.225Z,68.38
2023-02-14T05:55:44.995Z,68.87
2023-02-14T06:00:47.698Z,68.33
2023-02-14T06:05:50.543Z,68.07
2023-02-14T06:10:53.251Z,68.00
2023-02-14T06:15:55.945Z,67.93
2023-02-14T06:20:59.152Z,67.71
2023-02-14T06:26:01.998Z,67.70
2023-02-14T06:31:04.997Z,67.59
2023-02-14T06:36:08.073Z,67.35
2023-02-14T06:41:12.067Z,67.50
2023-02-14T06:46:15.911Z,67.38
2023-02-14T06:51:18.804Z,66.87
2023-02-14T06:56:21.557Z,66.97
2023-02-14T07:01:24.347Z,67.08
2023-02-14T07:06:27.131Z,67.10
2023-02-14T07:11:29.823Z,67.04
2023-02-14T07:16:32.551Z,66.81
2023-02-14T07:21:35.445Z,66.78
2023-02-14T07:26:38.159Z,67.00
2023-02-14T07:31:41.110Z,66.48
2023-02-14T07:36:44.565Z,66.36
2023-02-14T07:41:47.213Z,66.17
2023-02-14T07:46:54.489Z,65.96
2023-02-14T07:51:57.214Z,65.65
2023-02-14T07:56:59.981Z,65.77
2023-02-14T08:02:02.675Z,65.01
2023-02-14T08:07:05.356Z,65.23
2023-02-14T08:12:26.307Z,65.35
2023-02-14T08:17:28.977Z,65.11
2023-02-14T08:22:32.035Z,65.21
2023-02-14T08:27:34.843Z,64.92
2023-02-14T08:32:37.783Z,64.69
2023-02-14T08:37:40.979Z,64.05
2023-02-14T08:42:43.644Z,64.03
2023-02-14T08:47:46.574Z,64.12
2023-02-14T08:52:49.325Z,63.93
2023-02-14T08:57:52.149Z,64.19
2023-02-14T09:02:54.929Z,63.98
2023-02-14T09:07:59.951Z,64.15
2023-02-14T09:13:02.745Z,63.74
2023-02-14T09:18:05.618Z,63.56
2023-02-14T09:23:08.293Z,63.82
2023-02-14T09:28:11.223Z,63.51
2023-02-14T09:33:14.660Z,63.48
2023-02-14T09:38:18.373Z,63.55
2023-02-14T09:43:32.855Z,63.86
2023-02-14T09:48:44.236Z,63.71
2023-02-14T09:53:54.792Z,63.82
2023-02-14T09:59:29.321Z,63.33
2023-02-14T10:04:33.181Z,63.78
2023-02-14T10:10:11.099Z,63.63
2023-02-14T10:15:24.356Z,64.03
2023-02-14T10:20:31.825Z,64.32
2023-02-14T10:25:47.074Z,64.25
2023-02-14T10:31:05.366Z,63.93
2023-02-14T10:36:25.601Z,64.22
2023-02-14T10:41:38.199Z,64.45
2023-02-14T10:46:49.787Z,64.36
2023-02-14T10:51:58.118Z,64.53
2023-02-14T10:57:03.872Z,64.56
2023-02-14T11:02:10.669Z,64.44
2023-02-14T11:07:18.084Z,64.69
2023-02-14T11:12:38.536Z,64.93
2023-02-14T11:17:42.589Z,65.15
2023-02-14T11:22:45.337Z,65.45
2023-02-14T11:27:50.587Z,65.08
2023-02-14T11:32:56.518Z,65.71
2023-02-14T11:37:59.327Z,65.59
2023-02-14T11:43:19.594Z,66.15
2023-02-14T11:48:37.888Z,65.91
2023-02-14T11:53:56.469Z,66.18
2023-02-14T11:59:04.210Z,66.23
2023-02-14T12:04:14.294Z,66.35
2023-02-14T12:09:23.140Z,66.62
2023-02-14T12:14:28.972Z,66.29
2023-02-14T12:19:42.895Z,66.87
2023-02-14T12:24:54.843Z,66.96
2023-02-14T12:30:07.585Z,66.85
2023-02-14T12:35:16.498Z,67.44
2023-02-14T12:40:23.148Z,67.12
2023-02-14T12:45:48.051Z,67.43
2023-02-14T12:50:54.557Z,67.21
2023-02-14T12:56:22.973Z,67.09
2023-02-14T13:01:49.833Z,67.66
2023-02-14T13:06:56.173Z,67.92
2023-02-14T13:12:01.460Z,67.92
2023-02-14T13:17:17.650Z,68.22
2023-02-14T13:22:23.121Z,67.67
2023-02-14T13:27:29.898Z,67.89
2023-02-14T13:32:39.312Z,67.97
2023-02-14T13:37:47.389Z,68.04
2023-02-14T13:42:51.449Z,68.23
2023-02-14T13:48:15.411Z,68.34
2023-02-14T13:53:41.974Z,68.29
2023-02-14T13:59:05.853Z,68.28
2023-02-14T14:04:27.244Z,68.71
2023-02-14T14:09:45.288Z,68.31
2023-02-14T14:15:08.424Z,68.25
2023-02-14T14:20:16.895Z,68.58
2023-02-14T14:25:37.897Z,68.65
2023-02-14T14:30:44.838Z,68.90
2023-02-14T14:36:03.059Z,68.91
2023-02-14T14:41:06.190Z,69.02
2023-02-14T14:46:12.001Z,69.21
2023-02-14T14:51:34.940Z,69.02
2023-02-14T14:56:45.152Z,69.22
2023-02-14T15:01:51.765Z,69.55
2023-02-14T15:06:56.831Z,69.56
2023-02-14T15:12:19.975Z,69.46
2023-02-14T15:17:26.439Z,69.70
2023-02-14T15:22:34.587Z,70.08
2023-02-14T15:27:41.072Z,69.64
2023-02-14T15:32:43.962Z,70.23
2023-02-14T15:37:47.400Z,69.92
2023-02-14T15:42:51.027Z,69.51
2023-02-14T15:47:59.620Z,70.11
2023-02-14T15:53:20.767Z,69.92
2023-02-14T15:58:27.130Z,69.96
2023-02-14T16:03:34.223Z,70.32
2023-02-14T16:08:39.038Z,70.23
2023-02-14T16:13:46.665Z,70.82
2023-02-14T16:18:52.508Z,70.43
2023-02-14T16:24:11.147Z,70.79
2023-02-14T16:29:18.086Z,71.10
2023-02-14T16:34:21.054Z,71.01
2023-02-14T16:39:25.440Z,70.91
2023-02-14T16:44:28.193Z,70.95
2023-02-14T16:49:30.805Z,70.97
2023-02-14T16:54:33.515Z,71.09
2023-02-14T16:59:36.429Z,70.88
2023-02-14T17:04:39.114Z,70.82
2023-02-14T17:09:45.210Z,71.59
2023-02-14T17:14:50.445Z,71.27
2023-02-14T17:19:53.373Z,70.98
2023-02-14T17:24:57.178Z,71.19
2023-02-14T17:30:01.583Z,71.53
2023-02-14T17:35:09.179Z,71.34
2023-02-14T17:40:13.312Z,71.50
2023-02-14T17:45:16.008Z,71.03
2023-02-14T17:50:18.843Z,71.76
2023-02-14T17:55:21.671Z,71.48
2023-02-14T18:00:24.743Z,71.92
2023-02-14T18:05:27.303Z,71.57
2023-02-14T18:10:30.434Z,71.21
2023-02-14T18:15:33.828Z,72.17
2023-02-14T18:20:36.537Z,71.78
2023-02-14T18:25:39.369Z,71.97
2023-02-14T18:30:42.118Z,71.71
2023-02-14T18:35:45.312Z,71.90
2023-02-14T18:40:47.992Z,71.88
2023-02-14T18:45:50.761Z,71.47
2023-02-14T18:50:53.774Z,71.76
2023-02-14T18:55:56.584Z,72.09
2023-02-14T19:00:59.674Z,72.29
2023-02-14T19:06:02.415Z,71.76
2023-02-14T19:11:10.362Z,71.74
2023-02-14T19:16:16.019Z,71.97
2023-02-14T19:21:22.211Z,72.03
2023-02-14T19:26:38.019Z,71.61
2023-02-14T19:31:45.413Z,72.34
2023-02-14T19:36:49.122Z,72.23
2023-02-14T19:41:52.348Z,72.03
2023-02-14T19:46:56.821Z,71.94
2023-02-14T19:52:00.051Z,72.28
2023-02-14T19:57:02.920Z,72.05
2023-02-14T20:02:05.632Z,72.25
2023-02-14T20:07:08.781Z,72.41
2023-02-14T20:12:11.785Z,71.70
2023-02-14T20:17:15.330Z,71.69
2023-02-14T20:22:18.365Z,72.44
2023-02-14T20:27:21.276Z,72.05
2023-02-14T20:32:24.017Z,72.21
2023-02-14T20:37:26.724Z,72.04
2023-02-14T20:42:29.387Z,72.07
2023-02-14T20:47:32.071Z,72.11
2023-02-14T20:52:37.041Z,71.48
2023-02-14T20:57:39.749Z,71.99
2023-02-14T21:02:45.557Z,72.07
2023-02-14T21:07:48.362Z,71.82
2023-02-14T21:12:53.151Z,72.35
2023-02-14T21:17:55.833Z,72.11
2023-02-14T21:22:58.493Z,71.79
2023-02-14T21:28:01.218Z,72.25
2023-02-14T21:33:04.430Z,72.09
2023-02-14T21:38:07.354Z,72.33
2023-02-14T21:43:10.125Z,72.16
2023-02-14T21:48:31.057Z,72.39
2023-02-14T21:53:33.957Z,72.35
2023-02-14T21:58:40.302Z,72.38
2023-02-14T22:03:43.036Z,72.37
2023-02-14T22:08:45.889Z,72.33
2023-02-14T22:13:48.731Z,72.34
2023-02-14T22:18:51.994Z,71.83
2023-02-14T22:23:56.043Z,72.08
2023-02-14T22:29:00.713Z,72.22
2023-02-14T22:34:05.304Z,72.12
2023-02-14T22:39:08.121Z,72.31
2023-02-14T22:44:11.268Z,72.59
2023-02-14T22:49:14.385Z,72.29
2023-02-14T22:54:17.269Z,72.68
2023-02-14T22:59:24.727Z,72.34
2023-02-14T23:04:29.994Z,72.60
2023-02-14T23:09:32.717Z,72.46
2023-02-14T23:14:54.259Z,72.32
2023-02-14T23:20:15.471Z,72.29
2023-02-14T23:25:18.183Z,72.55
2023-02-14T23:30:21.148Z,72.03
2023-02-14T23:35:23.981Z,71.86
2023-02-14T23:40:26.638Z,72.03
2023-02-14T23:45:35.047Z,71.46
2023-02-14T23:50:38.638Z,71.73
2023-02-14T23:55:41.266Z,71.83
